Time;durP1;ratioP1;P1;durP2;ratioP2;P2;SDS_P1;SDS_P2;PMS_P1;PMS_P2;Temp;Humidity;BMP_temperature;BMP_pressure;BME280_temperature;BME280_humidity;BME280_pressure;Samples;Min_cycle;Max_cycle;Signal;HPM_P1;HPM_P2
2024/01/25 00:02:02;;;;;;;14.48;4.70;;;;;;;9.51;71.24;99178.66;5000355;28;20289;-74
2024/01/25 00:04:29;;;;;;;13.45;3.65;;;;;;;9.57;71.11;99177.13;4999395;28;20653;-74
2024/01/25 00:06:57;;;;;;;18.13;4.28;;;;;;;9.67;70.95;99172.41;5000947;28;20285;-74
2024/01/25 00:09:23;;;;;;;13.32;4.25;;;;;;;9.60;71.16;99164.13;4999897;28;20326;-74
2024/01/25 00:11:50;;;;;;;13.35;4.22;;;;;;;9.57;71.50;99166.31;5000369;28;20203;-74
2024/01/25 00:14:16;;;;;;;16.77;4.45;;;;;;;9.58;71.68;99162.63;5000024;28;20214;-74
2024/01/25 00:16:43;;;;;;;19.33;4.38;;;;;;;9.67;71.00;99164.31;4999907;28;20206;-74
2024/01/25 00:19:10;;;;;;;15.73;4.03;;;;;;;9.54;71.86;99155.84;5000150;28;20217;-74
2024/01/25 00:21:42;;;;;;;12.75;3.60;;;;;;;9.58;71.86;99168.00;5014535;28;20202;-74
2024/01/25 00:24:13;;;;;;;11.40;4.45;;;;;;;9.51;72.07;99161.59;5001425;28;20293;-74
2024/01/25 00:26:39;;;;;;;15.25;4.60;;;;;;;9.53;72.01;99167.66;5012902;28;20287;-74
2024/01/25 00:29:06;;;;;;;16.60;4.20;;;;;;;9.65;71.68;99164.47;5003920;28;20673;-74
2024/01/25 00:31:32;;;;;;;16.10;4.28;;;;;;;9.60;72.06;99171.41;5002179;28;20695;-74
2024/01/25 00:33:59;;;;;;;18.92;4.32;;;;;;;9.53;72.36;99162.28;5000220;28;20233;-74
2024/01/25 00:36:26;;;;;;;15.20;4.00;;;;;;;9.64;72.00;99151.13;5000730;28;20261;-74
2024/01/25 00:38:53;;;;;;;13.80;4.72;;;;;;;9.58;72.22;99160.75;5002018;28;20293;-74
2024/01/25 00:41:22;;;;;;;13.32;4.35;;;;;;;9.59;72.46;99169.72;5000422;28;20199;-73
2024/01/25 00:43:49;;;;;;;13.02;4.05;;;;;;;9.60;72.31;99166.00;5001285;28;20210;-75
2024/01/25 00:46:16;;;;;;;14.10;4.03;;;;;;;9.60;72.51;99161.44;5001585;28;20294;-74
2024/01/25 00:48:43;;;;;;;12.48;4.45;;;;;;;9.65;72.42;99163.63;5000223;28;20207;-74
2024/01/25 00:51:15;;;;;;;14.75;4.68;;;;;;;9.63;72.56;99149.44;5001276;28;20229;-74
2024/01/25 00:53:42;;;;;;;12.43;3.63;;;;;;;9.70;72.37;99145.91;5005936;28;20223;-74
2024/01/25 00:56:11;;;;;;;16.25;4.65;;;;;;;9.70;72.57;99155.88;5019556;28;20199;-74
2024/01/25 00:58:40;;;;;;;13.68;4.00;;;;;;;9.75;72.61;99156.19;5005205;28;20618;-74
2024/01/25 01:01:09;;;;;;;15.18;4.40;;;;;;;9.67;73.00;99146.25;5004088;28;20206;-74
2024/01/25 01:03:37;;;;;;;15.43;4.15;;;;;;;9.70;73.19;99155.88;5012211;28;20202;-74
2024/01/25 01:06:04;;;;;;;12.80;4.03;;;;;;;9.59;73.68;99150.78;5003651;28;20199;-74
2024/01/25 01:08:32;;;;;;;12.40;4.05;;;;;;;9.61;73.54;99146.91;5018470;28;20202;-73
2024/01/25 01:10:59;;;;;;;14.05;3.65;;;;;;;9.73;73.18;99145.56;5003521;28;20300;-74
2024/01/25 01:13:26;;;;;;;13.38;4.05;;;;;;;9.60;73.86;99152.47;5004192;28;20257;-73
2024/01/25 01:15:54;;;;;;;17.25;4.18;;;;;;;9.59;73.87;99142.69;5005927;28;20198;-74
2024/01/25 01:18:21;;;;;;;14.45;4.40;;;;;;;9.58;73.51;99128.31;5020197;28;20343;-73
2024/01/25 01:20:48;;;;;;;13.10;3.80;;;;;;;9.65;73.39;99142.00;5003321;28;20198;-74
2024/01/25 01:23:15;;;;;;;15.48;3.65;;;;;;;9.70;73.61;99139.66;5003260;28;20225;-74
2024/01/25 01:25:42;;;;;;;24.30;5.00;;;;;;;9.68;73.84;99144.38;5008177;28;20236;-74
2024/01/25 01:28:09;;;;;;;13.52;4.20;;;;;;;9.64;74.12;99151.97;5021788;28;20241;-74
2024/01/25 01:30:36;;;;;;;10.77;3.00;;;;;;;9.68;73.86;99152.50;5021975;28;20202;-74
2024/01/25 01:33:05;;;;;;;14.65;4.20;;;;;;;9.69;73.90;99146.91;5002274;28;20206;-74
2024/01/25 01:35:34;;;;;;;16.83;4.72;;;;;;;9.73;73.64;99144.72;5001777;28;20223;-74
2024/01/25 01:38:01;;;;;;;14.35;4.32;;;;;;;9.71;73.75;99146.75;5002940;28;20217;-74
2024/01/25 01:40:28;;;;;;;11.25;4.25;;;;;;;9.60;74.28;99149.78;5002620;28;20334;-74
2024/01/25 01:43:00;;;;;;;17.83;3.50;;;;;;;9.60;74.32;99142.50;5003439;28;20424;-72
2024/01/25 01:45:27;;;;;;;11.13;4.00;;;;;;;9.63;73.96;99144.88;5010148;28;20219;-73
2024/01/25 01:47:54;;;;;;;11.82;3.90;;;;;;;9.72;73.75;99148.44;5003262;28;20760;-74
2024/01/25 01:50:23;;;;;;;13.80;4.43;;;;;;;9.73;73.65;99144.72;5018920;28;20207;-74
2024/01/25 01:52:51;;;;;;;14.70;4.00;;;;;;;9.63;73.60;99142.19;5012483;28;20257;-73
2024/01/25 01:55:18;;;;;;;14.38;4.00;;;;;;;9.51;73.88;99151.63;5003029;28;20271;-73
2024/01/25 01:57:45;;;;;;;12.90;4.03;;;;;;;9.56;73.63;99143.00;5001569;28;20198;-73
2024/01/25 02:00:15;;;;;;;10.45;4.00;;;;;;;9.56;73.62;99133.06;5004249;28;20256;-73
2024/01/25 02:02:42;;;;;;;13.00;3.78;;;;;;;9.60;73.84;99133.56;5002422;28;20199;-73
2024/01/25 02:05:10;;;;;;;13.68;4.30;;;;;;;9.54;74.24;99128.81;5008409;28;20219;-73
2024/01/25 02:07:40;;;;;;;14.88;3.70;;;;;;;9.57;74.29;99126.63;5004242;28;20210;-73
2024/01/25 02:10:08;;;;;;;17.95;4.00;;;;;;;9.59;74.19;99135.41;5003801;28;20704;-73
2024/01/25 02:12:36;;;;;;;16.48;4.38;;;;;;;9.54;74.23;99139.63;5016915;28;20203;-74
2024/01/25 02:15:03;;;;;;;13.57;4.22;;;;;;;9.56;74.28;99143.00;4992361;28;20226;-73
2024/01/25 02:17:30;;;;;;;13.63;4.38;;;;;;;9.69;73.99;99144.22;5003633;28;20297;-73
2024/01/25 02:19:57;;;;;;;15.90;4.05;;;;;;;9.67;73.71;99121.06;5002402;28;20331;-73
2024/01/25 02:22:25;;;;;;;12.52;4.10;;;;;;;9.61;73.99;99130.69;5002638;28;20194;-73
2024/01/25 02:24:52;;;;;;;13.75;4.03;;;;;;;9.57;74.24;99125.78;5004910;28;20191;-73
2024/01/25 02:27:19;;;;;;;12.77;3.97;;;;;;;9.58;74.16;99138.28;5003609;28;20198;-73
2024/01/25 02:29:46;;;;;;;15.60;4.45;;;;;;;9.56;74.14;99137.59;4999888;28;20657;-73
2024/01/25 02:32:13;;;;;;;12.07;4.00;;;;;;;9.52;74.30;99138.97;5001547;28;20261;-74
2024/01/25 02:34:40;;;;;;;17.98;4.47;;;;;;;9.60;74.05;99136.25;5004068;28;20398;-73
2024/01/25 02:37:07;;;;;;;12.30;3.97;;;;;;;9.55;73.82;99141.31;5003405;28;20209;-73
2024/01/25 02:39:35;;;;;;;14.15;4.30;;;;;;;9.59;74.00;99138.13;5003284;28;20253;-74
2024/01/25 02:42:02;;;;;;;14.15;4.38;;;;;;;9.49;74.17;99136.59;5006544;28;20711;-73
2024/01/25 02:44:29;;;;;;;12.65;3.85;;;;;;;9.52;73.70;99147.91;4990268;28;20203;-73
2024/01/25 02:46:56;;;;;;;14.90;4.07;;;;;;;9.55;73.52;99142.16;5006003;28;20203;-74
2024/01/25 02:49:24;;;;;;;19.35;4.72;;;;;;;9.67;73.18;99157.06;5002343;28;20326;-73
2024/01/25 02:51:51;;;;;;;14.82;4.10;;;;;;;9.69;73.36;99154.19;5000927;28;20233;-73
2024/01/25 02:54:18;;;;;;;11.27;4.43;;;;;;;9.50;73.68;99154.50;5001047;28;20226;-73
2024/01/25 02:56:46;;;;;;;12.52;3.75;;;;;;;9.49;73.68;99133.88;5001868;28;20209;-73
2024/01/25 02:59:13;;;;;;;14.55;5.13;;;;;;;9.34;73.76;99148.06;5000147;28;20260;-73
2024/01/25 03:01:41;;;;;;;11.40;3.70;;;;;;;9.39;73.84;99147.59;5003401;28;20265;-73
2024/01/25 03:04:08;;;;;;;16.02;4.40;;;;;;;9.36;73.67;99153.31;5002219;28;20253;-74
2024/01/25 03:06:35;;;;;;;13.95;4.57;;;;;;;9.27;74.01;99152.44;5016402;28;20207;-74
2024/01/25 03:09:04;;;;;;;17.88;4.85;;;;;;;9.32;73.85;99142.00;5000508;28;20233;-73
2024/01/25 03:11:31;;;;;;;12.93;3.90;;;;;;;9.30;73.90;99149.41;5002614;28;20286;-73
2024/01/25 03:13:59;;;;;;;14.57;3.97;;;;;;;9.29;73.99;99158.53;5001207;28;20225;-73
2024/01/25 03:16:26;;;;;;;14.48;4.38;;;;;;;9.32;73.95;99174.41;4999888;28;20246;-74
2024/01/25 03:18:53;;;;;;;12.95;3.85;;;;;;;9.30;73.74;99154.81;5002500;28;20615;-74
2024/01/25 03:21:20;;;;;;;14.95;4.00;;;;;;;9.27;73.75;99160.56;5000604;28;20199;-74
2024/01/25 03:23:47;;;;;;;9.75;3.67;;;;;;;9.23;73.98;99159.19;4997315;28;20213;-74
2024/01/25 03:26:14;;;;;;;14.48;3.90;;;;;;;9.24;73.83;99160.88;5000686;28;20206;-74
2024/01/25 03:28:41;;;;;;;12.35;3.65;;;;;;;9.28;73.64;99164.94;5014563;28;20210;-73
2024/01/25 03:31:10;;;;;;;9.38;3.40;;;;;;;9.26;73.66;99164.28;5000641;28;20199;-73
2024/01/25 03:33:37;;;;;;;12.25;3.70;;;;;;;9.27;73.57;99160.56;5007364;28;20261;-73
2024/01/25 03:36:05;;;;;;;13.18;4.38;;;;;;;9.18;73.82;99169.66;4999982;28;20211;-74
2024/01/25 03:38:32;;;;;;;10.52;4.15;;;;;;;9.21;73.63;99171.16;4998172;28;20207;-73
2024/01/25 03:40:59;;;;;;;16.40;3.95;;;;;;;9.27;73.58;99171.34;5017479;28;20723;-73
2024/01/25 03:43:26;;;;;;;17.67;4.20;;;;;;;9.28;73.32;99191.97;5000066;28;20213;-74
2024/01/25 03:45:53;;;;;;;12.43;4.10;;;;;;;9.24;73.31;99187.06;5000437;28;20667;-73
2024/01/25 03:48:21;;;;;;;10.85;3.63;;;;;;;9.11;73.79;99192.91;4998157;28;20195;-74
2024/01/25 03:50:49;;;;;;;12.57;4.15;;;;;;;9.10;73.71;99192.06;4999916;28;20206;-74
2024/01/25 03:53:15;;;;;;;8.48;3.70;;;;;;;9.24;73.40;99198.69;5000566;28;20201;-74
2024/01/25 03:55:43;;;;;;;14.65;4.25;;;;;;;9.23;73.23;99201.56;5000087;28;20231;-74
2024/01/25 03:58:11;;;;;;;15.07;4.78;;;;;;;9.28;73.15;99205.47;5006741;28;20210;-73
2024/01/25 04:00:38;;;;;;;14.80;4.45;;;;;;;9.14;73.43;99203.38;4999494;28;20210;-73
2024/01/25 04:03:05;;;;;;;14.93;4.28;;;;;;;9.08;73.63;99204.06;4990451;28;20207;-73
2024/01/25 04:05:33;;;;;;;11.15;3.80;;;;;;;9.11;73.45;99214.50;4998391;28;20191;-73
2024/01/25 04:08:00;;;;;;;12.30;3.88;;;;;;;9.08;73.46;99207.63;4999125;28;20281;-73
2024/01/25 04:10:27;;;;;;;14.65;4.13;;;;;;;9.07;73.28;99207.78;4998812;28;20206;-73
2024/01/25 04:12:54;;;;;;;17.58;3.90;;;;;;;9.05;73.25;99212.50;5000214;28;20210;-73
2024/01/25 04:15:21;;;;;;;13.70;4.03;;;;;;;9.06;72.82;99206.09;4998902;28;20301;-74
2024/01/25 04:17:48;;;;;;;16.77;4.75;;;;;;;9.09;72.87;99208.47;5000715;28;20265;-74
2024/01/25 04:20:16;;;;;;;13.55;3.83;;;;;;;9.14;72.68;99216.88;5000154;28;20198;-74
2024/01/25 04:22:44;;;;;;;14.93;4.15;;;;;;;9.09;72.43;99209.31;4999796;28;20603;-73
2024/01/25 04:25:12;;;;;;;13.23;3.83;;;;;;;9.09;72.34;99213.88;5016187;28;20198;-73
2024/01/25 04:27:39;;;;;;;13.57;4.18;;;;;;;9.01;72.75;99221.94;5016395;28;20249;-73
2024/01/25 04:30:07;;;;;;;13.23;3.65;;;;;;;9.06;72.55;99211.50;4997968;28;20609;-74
2024/01/25 04:32:34;;;;;;;12.15;4.07;;;;;;;8.95;72.88;99209.06;5005883;28;20199;-73
2024/01/25 04:35:01;;;;;;;11.38;4.25;;;;;;;8.91;73.32;99207.69;5004782;28;20641;-73
2024/01/25 04:37:28;;;;;;;13.35;3.92;;;;;;;8.89;73.61;99215.13;5009278;28;20207;-73
2024/01/25 04:39:56;;;;;;;13.63;4.65;;;;;;;8.91;73.54;99208.56;5004905;28;20672;-74
2024/01/25 04:42:23;;;;;;;12.02;3.80;;;;;;;8.84;73.48;99203.97;5004983;28;20603;-74
2024/01/25 04:44:50;;;;;;;16.75;4.90;;;;;;;8.88;73.19;99213.44;5002711;28;20214;-73
2024/01/25 04:47:17;;;;;;;17.00;3.97;;;;;;;8.83;73.42;99196.88;5003547;28;20676;-74
2024/01/25 04:49:44;;;;;;;11.13;3.22;;;;;;;8.86;73.16;99212.75;5004045;28;20254;-73
2024/01/25 04:52:10;;;;;;;11.90;4.20;;;;;;;8.79;73.14;99214.38;5004909;28;20210;-74
2024/01/25 04:54:37;;;;;;;16.38;4.47;;;;;;;8.71;73.66;99209.81;5003118;28;20260;-73
2024/01/25 04:57:06;;;;;;;14.43;3.80;;;;;;;8.71;73.39;99221.47;5004428;28;20293;-74
2024/01/25 04:59:33;;;;;;;16.10;4.30;;;;;;;8.54;73.64;99227.75;5001263;28;20203;-74
2024/01/25 05:02:00;;;;;;;16.90;3.40;;;;;;;8.59;73.54;99222.75;5001662;28;20281;-73
2024/01/25 05:04:30;;;;;;;15.80;3.47;;;;;;;8.49;73.69;99230.09;4998050;28;20570;-73
2024/01/25 05:06:57;;;;;;;15.32;4.20;;;;;;;8.51;73.43;99227.25;5002845;28;20213;-73
2024/01/25 05:09:24;;;;;;;18.15;4.43;;;;;;;8.41;73.24;99227.38;5002601;28;20203;-73
2024/01/25 05:11:51;;;;;;;11.88;4.00;;;;;;;8.38;73.09;99227.69;5004712;28;20203;-73
2024/01/25 05:14:19;;;;;;;15.55;4.18;;;;;;;8.29;73.12;99229.44;5001103;28;20234;-74
2024/01/25 05:16:46;;;;;;;11.25;3.80;;;;;;;8.31;72.74;99232.81;5002064;28;20293;-74
2024/01/25 05:19:13;;;;;;;13.60;3.20;;;;;;;8.32;72.63;99234.56;5006766;28;20199;-74
2024/01/25 05:21:40;;;;;;;11.38;3.65;;;;;;;8.19;72.98;99242.16;5000500;28;20330;-73
2024/01/25 05:24:07;;;;;;;13.38;4.25;;;;;;;8.21;72.89;99242.00;5001882;28;20206;-74
2024/01/25 05:26:34;;;;;;;15.00;3.97;;;;;;;8.13;72.77;99241.94;5003524;28;20206;-73
2024/01/25 05:29:01;;;;;;;16.25;4.07;;;;;;;8.16;73.02;99245.19;5002337;28;20542;-74
2024/01/25 05:31:29;;;;;;;12.43;4.07;;;;;;;8.21;72.84;99248.25;5004101;28;20204;-74
2024/01/25 05:33:56;;;;;;;15.40;3.90;;;;;;;8.20;72.82;99248.41;5001937;28;20209;-74
2024/01/25 05:36:23;;;;;;;16.98;4.10;;;;;;;8.16;72.72;99253.25;5014948;28;20246;-75
2024/01/25 05:38:50;;;;;;;12.43;4.15;;;;;;;8.27;73.18;99252.19;4992962;28;20253;-75
2024/01/25 05:41:17;;;;;;;10.55;3.40;;;;;;;8.21;72.31;99255.50;5001412;28;20261;-76
2024/01/25 05:43:48;;;;;;;11.48;3.80;;;;;;;8.09;72.36;99244.97;4984345;28;20210;-78
2024/01/25 05:46:15;;;;;;;15.65;4.45;;;;;;;8.02;72.78;99256.53;5018337;28;20194;-76
2024/01/25 05:48:44;;;;;;;13.30;3.63;;;;;;;8.04;72.45;99258.09;5002020;28;20244;-75
2024/01/25 05:51:11;;;;;;;16.65;4.20;;;;;;;8.07;72.19;99260.47;5001641;28;20610;-76
2024/01/25 05:53:38;;;;;;;12.40;4.13;;;;;;;8.00;72.48;99262.09;4997539;28;20198;-75
2024/01/25 05:56:05;;;;;;;13.38;3.67;;;;;;;7.89;72.89;99265.00;4994358;28;20746;-75
2024/01/25 05:58:32;;;;;;;17.70;4.05;;;;;;;7.87;72.68;99261.63;5001812;28;20207;-75
2024/01/25 06:00:59;;;;;;;14.40;3.78;;;;;;;7.90;72.47;99272.09;4997842;28;20321;-75
2024/01/25 06:03:26;;;;;;;11.35;3.80;;;;;;;7.92;72.49;99275.50;4998926;28;20213;-76
2024/01/25 06:05:55;;;;;;;13.07;3.80;;;;;;;7.79;72.47;99275.03;5001427;28;20195;-75
2024/01/25 06:08:21;;;;;;;12.77;3.50;;;;;;;7.73;72.83;99281.03;5000078;28;20199;-76
2024/01/25 06:10:49;;;;;;;14.55;4.32;;;;;;;7.70;72.79;99284.91;4999315;28;20269;-76
2024/01/25 06:13:16;;;;;;;15.93;4.70;;;;;;;7.68;72.79;99276.13;4999429;28;20695;-76
2024/01/25 06:15:42;;;;;;;14.98;4.30;;;;;;;7.69;72.82;99274.25;5002416;28;20316;-76
2024/01/25 06:18:09;;;;;;;10.45;3.90;;;;;;;7.56;73.67;99284.56;4998030;28;20264;-76
2024/01/25 06:20:36;;;;;;;12.48;3.70;;;;;;;7.71;73.09;99283.03;5001347;28;20199;-76
2024/01/25 06:23:05;;;;;;;12.75;3.90;;;;;;;7.75;72.95;99284.44;5002346;28;20268;-73
2024/01/25 06:25:32;;;;;;;15.48;5.50;;;;;;;7.63;73.77;99275.72;4997154;28;20195;-73
2024/01/25 06:28:00;;;;;;;17.88;5.10;;;;;;;7.50;74.59;99272.53;4996672;28;20230;-73
2024/01/25 06:30:27;;;;;;;16.95;3.78;;;;;;;7.34;75.44;99275.91;4998269;28;20234;-74
2024/01/25 06:32:54;;;;;;;14.27;3.97;;;;;;;7.16;76.57;99277.72;4993410;28;20198;-74
2024/01/25 06:35:23;;;;;;;12.52;3.97;;;;;;;6.94;77.87;99281.66;4993793;28;20202;-73
2024/01/25 06:37:49;;;;;;;14.00;4.60;;;;;;;7.01;78.02;99279.22;4998666;28;20203;-73
2024/01/25 06:40:18;;;;;;;14.10;4.70;;;;;;;7.05;78.41;99288.69;4998052;28;20211;-73
2024/01/25 06:42:45;;;;;;;14.65;4.93;;;;;;;7.10;78.02;99294.47;5005664;28;20207;-74
2024/01/25 06:45:13;;;;;;;16.17;4.72;;;;;;;7.15;78.01;99292.16;5002483;28;20211;-74
2024/01/25 06:47:39;;;;;;;15.20;3.85;;;;;;;7.24;77.50;99302.03;5004948;28;20298;-75
2024/01/25 06:50:09;;;;;;;16.67;4.95;;;;;;;7.25;77.79;99298.34;5000061;28;20768;-75
2024/01/25 06:52:35;;;;;;;14.77;5.10;;;;;;;7.31;77.66;99305.00;5001819;28;20286;-75
2024/01/25 06:55:03;;;;;;;15.70;4.43;;;;;;;7.19;77.97;99320.50;4995725;28;20207;-75
2024/01/25 06:57:31;;;;;;;13.30;4.68;;;;;;;7.35;77.57;99315.31;4998191;28;20245;-75
2024/01/25 06:59:58;;;;;;;19.15;4.72;;;;;;;7.30;77.53;99322.16;4978642;28;20204;-75
2024/01/25 07:02:26;;;;;;;15.45;4.57;;;;;;;7.24;78.06;99320.88;4996223;28;20572;-74
2024/01/25 07:04:54;;;;;;;10.90;4.03;;;;;;;7.22;78.37;99322.03;4997619;28;20210;-75
2024/01/25 07:07:21;;;;;;;11.35;4.57;;;;;;;7.12;78.96;99321.25;4997037;28;20717;-75
2024/01/25 07:09:48;;;;;;;16.42;5.40;;;;;;;7.21;78.67;99326.56;4996453;28;20199;-75
2024/01/25 07:12:15;;;;;;;21.63;4.90;;;;;;;7.26;78.33;99334.22;5007171;28;20206;-75
2024/01/25 07:14:44;;;;;;;18.58;4.10;;;;;;;7.18;78.91;99329.56;5000341;28;20529;-75
2024/01/25 07:17:11;;;;;;;23.65;5.43;;;;;;;7.26;78.98;99337.75;4995402;28;20230;-74
2024/01/25 07:19:37;;;;;;;15.05;5.07;;;;;;;7.19;79.32;99320.50;5000362;28;20276;-74
2024/01/25 07:22:05;;;;;;;19.63;5.35;;;;;;;7.12;79.83;99316.72;4996958;28;20284;-75
2024/01/25 07:24:32;;;;;;;15.63;4.72;;;;;;;7.20;79.57;99313.25;4996747;28;20207;-75
2024/01/25 07:26:59;;;;;;;13.55;5.95;;;;;;;7.27;79.53;99308.97;4998956;28;20726;-74
2024/01/25 07:29:26;;;;;;;17.83;5.25;;;;;;;7.23;79.77;99316.50;5001269;28;20785;-74
2024/01/25 07:31:54;;;;;;;17.08;5.47;;;;;;;7.25;79.63;99314.50;5000355;28;20261;-74
2024/01/25 07:34:21;;;;;;;18.27;5.45;;;;;;;7.25;79.72;99314.50;5006968;28;20656;-75
2024/01/25 07:36:48;;;;;;;17.85;5.00;;;;;;;7.41;79.21;99322.81;4981000;28;20280;-75
2024/01/25 07:39:15;;;;;;;15.50;4.28;;;;;;;7.63;78.43;99334.16;4997702;28;20636;-74
2024/01/25 07:41:42;;;;;;;16.38;4.78;;;;;;;7.67;78.06;99343.63;4998762;28;20803;-75
2024/01/25 07:44:09;;;;;;;20.45;5.32;;;;;;;7.68;78.02;99356.09;4997898;28;20722;-74
2024/01/25 07:46:36;;;;;;;15.80;4.50;;;;;;;7.62;78.39;99356.69;5015073;28;20221;-75
2024/01/25 07:49:04;;;;;;;17.15;5.00;;;;;;;7.77;77.80;99352.50;5000320;28;20214;-74
2024/01/25 07:51:31;;;;;;;14.00;5.60;;;;;;;7.86;76.97;99356.09;4999253;28;20210;-74
2024/01/25 07:53:58;;;;;;;20.02;4.63;;;;;;;7.90;76.47;99352.97;4999643;28;20260;-75
2024/01/25 07:56:29;;;;;;;19.67;5.35;;;;;;;8.09;76.39;99346.59;5001866;28;20273;-75
2024/01/25 07:58:59;;;;;;;14.20;5.20;;;;;;;8.06;76.41;99341.50;5005875;28;20217;-75
2024/01/25 08:01:26;;;;;;;18.30;4.80;;;;;;;8.03;76.42;99325.63;5015380;28;20671;-74
2024/01/25 08:03:53;;;;;;;14.35;4.32;;;;;;;8.03;76.55;99318.41;5010519;28;20787;-74
2024/01/25 08:06:22;;;;;;;16.00;5.32;;;;;;;8.14;76.49;99319.97;5004679;28;20199;-75
2024/01/25 08:08:49;;;;;;;17.05;5.60;;;;;;;8.16;76.81;99315.28;4997810;28;20616;-75
2024/01/25 08:11:18;;;;;;;13.27;4.70;;;;;;;8.12;76.60;99313.09;5006133;28;20286;-74
2024/01/25 08:13:45;;;;;;;16.33;4.68;;;;;;;8.09;77.11;99331.25;4999640;28;20209;-74
2024/01/25 08:16:13;;;;;;;17.80;4.82;;;;;;;7.98;77.37;99333.34;4999878;28;20712;-75
2024/01/25 08:18:40;;;;;;;18.35;5.07;;;;;;;8.02;77.67;99327.47;4995969;28;20688;-75
2024/01/25 08:21:07;;;;;;;12.95;5.63;;;;;;;8.19;77.25;99331.16;4996969;28;20211;-74
2024/01/25 08:23:35;;;;;;;15.68;4.65;;;;;;;8.24;76.93;99330.69;4995326;28;20199;-74
2024/01/25 08:26:04;;;;;;;12.52;4.43;;;;;;;8.39;76.58;99330.03;5001875;28;20751;-74
2024/01/25 08:28:31;;;;;;;14.65;5.15;;;;;;;8.47;76.17;99323.81;4999992;28;20207;-75
2024/01/25 08:30:58;;;;;;;15.68;3.97;;;;;;;8.50;75.85;99328.06;4998651;28;20217;-74
2024/01/25 08:33:25;;;;;;;14.50;4.00;;;;;;;8.81;74.73;99320.34;5000473;28;20249;-74
2024/01/25 08:35:52;;;;;;;12.95;4.55;;;;;;;8.95;74.02;99320.63;4990355;28;20284;-75
2024/01/25 08:38:19;;;;;;;12.90;4.72;;;;;;;9.08;73.48;99320.19;4996884;28;20201;-75
2024/01/25 08:40:48;;;;;;;14.68;5.57;;;;;;;9.29;72.43;99325.16;4997029;28;20203;-75
2024/01/25 08:43:15;;;;;;;13.48;4.47;;;;;;;9.88;70.46;99339.53;4994154;28;20241;-74
2024/01/25 08:45:42;;;;;;;11.25;4.30;;;;;;;10.66;67.32;99346.25;4993292;28;20202;-75
2024/01/25 08:48:09;;;;;;;17.70;4.22;;;;;;;11.09;66.05;99341.41;4998507;28;20260;-75
2024/01/25 08:50:36;;;;;;;12.40;3.53;;;;;;;11.65;63.96;99344.94;4997359;28;20285;-75
2024/01/25 08:53:05;;;;;;;17.80;5.13;;;;;;;11.73;63.27;99353.03;4999454;28;21237;-75
2024/01/25 08:55:32;;;;;;;12.67;4.80;;;;;;;11.22;65.13;99360.69;5015157;28;20633;-75
2024/01/25 08:58:00;;;;;;;16.43;4.83;;;;;;;11.14;65.17;99359.84;4996480;28;20653;-75
2024/01/25 09:00:27;;;;;;;17.13;5.23;;;;;;;11.34;64.93;99358.47;4993671;28;20641;-74
2024/01/25 09:02:54;;;;;;;11.63;4.13;;;;;;;11.74;63.60;99360.13;4995123;28;20621;-75
2024/01/25 09:05:21;;;;;;;13.80;4.30;;;;;;;12.07;61.62;99361.69;4991696;28;20655;-75
2024/01/25 09:07:50;;;;;;;11.30;3.90;;;;;;;11.95;62.24;99360.41;4987125;28;20653;-74
2024/01/25 09:10:18;;;;;;;14.77;4.20;;;;;;;12.73;60.22;99362.88;4987752;28;20657;-74
2024/01/25 09:12:45;;;;;;;8.50;3.63;;;;;;;12.70;59.73;99365.97;4993080;28;20622;-74
2024/01/25 09:15:13;;;;;;;12.40;4.30;;;;;;;12.59;59.70;99357.41;4996053;28;20634;-74
2024/01/25 09:17:40;;;;;;;9.60;3.37;;;;;;;13.20;58.26;99369.94;4992292;28;20666;-75
2024/01/25 09:20:08;;;;;;;11.73;4.30;;;;;;;13.56;57.13;99370.03;4997564;28;20635;-75
2024/01/25 09:22:35;;;;;;;10.07;4.10;;;;;;;13.75;56.59;99380.34;5001283;28;20630;-75
2024/01/25 09:25:02;;;;;;;10.70;4.17;;;;;;;13.78;56.40;99370.94;5000555;28;21016;-75
2024/01/25 09:27:29;;;;;;;13.37;4.47;;;;;;;13.81;55.91;99370.56;5000643;28;20634;-75
2024/01/25 09:29:56;;;;;;;13.63;4.60;;;;;;;12.77;58.09;99380.50;5003103;28;20641;-74
2024/01/25 09:32:25;;;;;;;16.97;5.07;;;;;;;12.37;59.50;99389.81;5001955;28;20633;-79
2024/01/25 09:34:54;;;;;;;12.73;5.07;;;;;;;12.06;60.68;99386.28;5002570;28;20684;-74
2024/01/25 09:37:23;;;;;;;11.67;4.00;;;;;;;12.22;60.41;99388.06;5001088;28;20658;-74
2024/01/25 09:39:51;;;;;;;12.63;4.10;;;;;;;12.19;60.85;99385.72;5001751;28;21206;-75
2024/01/25 09:42:18;;;;;;;12.70;4.67;;;;;;;12.62;59.92;99393.22;5002697;28;21022;-74
2024/01/25 09:44:45;;;;;;;14.23;4.97;;;;;;;12.96;58.17;99406.34;5002854;28;20629;-75
2024/01/25 09:47:13;;;;;;;10.20;4.23;;;;;;;13.11;57.77;99400.91;5002073;28;20634;-74
2024/01/25 09:49:44;;;;;;;11.90;4.37;;;;;;;12.69;58.64;99407.72;5002762;28;20708;-75
2024/01/25 09:52:13;;;;;;;14.73;5.20;;;;;;;12.23;60.04;99411.47;4999639;28;20642;-75
2024/01/25 09:54:40;;;;;;;13.57;4.03;;;;;;;12.25;60.43;99401.28;5017764;28;21741;-75
2024/01/25 09:57:14;;;;;;;14.70;5.00;;;;;;;12.25;60.34;99401.28;4999524;28;21824;-73
2024/01/25 09:59:41;;;;;;;15.90;5.00;;;;;;;12.31;60.70;99406.00;5016796;28;20637;-74
2024/01/25 10:02:09;;;;;;;12.83;4.90;;;;;;;11.85;61.71;99405.06;5001349;28;20622;-75
2024/01/25 10:04:36;;;;;;;13.03;4.03;;;;;;;11.88;61.89;99410.13;5003625;28;20630;-75
2024/01/25 10:07:04;;;;;;;10.60;3.40;;;;;;;12.19;60.54;99407.41;4998776;28;20631;-75
2024/01/25 10:09:38;;;;;;;14.67;4.30;;;;;;;11.83;61.83;99413.38;5003145;28;20609;-74
2024/01/25 10:12:06;;;;;;;12.03;4.23;;;;;;;11.54;62.61;99419.38;5001609;28;20622;-74
2024/01/25 10:14:33;;;;;;;16.63;4.47;;;;;;;11.57;62.80;99418.19;5002331;28;20633;-74
2024/01/25 10:17:02;;;;;;;14.40;4.60;;;;;;;11.02;64.13;99413.59;5000888;28;21038;-74
2024/01/25 10:19:29;;;;;;;13.17;4.27;;;;;;;10.97;63.10;99410.53;5002111;28;20636;-74
2024/01/25 10:21:57;;;;;;;17.77;4.80;;;;;;;10.90;62.20;99409.50;5000950;28;21127;-75
2024/01/25 10:24:25;;;;;;;12.80;4.40;;;;;;;10.97;62.27;99405.13;4999503;28;20213;-74
2024/01/25 10:26:52;;;;;;;16.53;4.80;;;;;;;11.06;62.49;99399.50;4998560;28;20676;-74
2024/01/25 10:29:19;;;;;;;14.60;4.50;;;;;;;11.10;62.79;99389.16;5002077;28;20642;-74
2024/01/25 10:31:46;;;;;;;12.05;3.90;;;;;;;11.16;63.15;99388.47;4995673;28;20203;-74
2024/01/25 10:34:15;;;;;;;18.53;5.43;;;;;;;12.11;60.73;99384.72;5000904;28;20210;-74
2024/01/25 10:36:42;;;;;;;10.90;3.90;;;;;;;12.81;56.77;99383.69;5001349;28;20654;-74
2024/01/25 10:39:10;;;;;;;13.67;4.07;;;;;;;13.53;54.05;99385.91;5000065;28;21027;-75
2024/01/25 10:41:40;;;;;;;11.63;3.50;;;;;;;13.97;52.96;99380.41;5001656;28;20713;-74
2024/01/25 10:44:07;;;;;;;14.13;3.47;;;;;;;14.01;52.37;99379.81;4993515;28;20633;-74
2024/01/25 10:46:35;;;;;;;10.67;3.93;;;;;;;13.26;53.35;99371.91;4999284;28;20711;-76
2024/01/25 10:49:03;;;;;;;12.47;4.20;;;;;;;12.82;55.35;99370.97;4997746;28;20664;-74
2024/01/25 10:51:31;;;;;;;9.83;3.80;;;;;;;12.54;56.59;99374.25;5003289;28;20693;-74
2024/01/25 10:53:59;;;;;;;11.73;4.07;;;;;;;12.02;59.02;99372.22;4995825;28;20605;-75
2024/01/25 10:56:26;;;;;;;12.37;4.40;;;;;;;11.98;59.26;99368.22;4996165;28;20734;-74
2024/01/25 10:58:54;;;;;;;15.13;4.47;;;;;;;11.86;59.99;99369.63;4995635;28;20689;-75
2024/01/25 11:01:22;;;;;;;11.80;4.80;;;;;;;11.68;60.77;99366.28;4998741;28;20603;-74
2024/01/25 11:03:49;;;;;;;10.43;4.00;;;;;;;12.02;60.17;99364.09;5002123;28;20636;-75
2024/01/25 11:06:16;;;;;;;10.80;3.67;;;;;;;12.74;58.02;99359.13;5016998;28;20692;-75
2024/01/25 11:08:43;;;;;;;12.37;4.40;;;;;;;12.85;57.14;99355.16;4999929;28;20709;-75
2024/01/25 11:11:12;;;;;;;9.70;3.80;;;;;;;13.04;56.46;99345.59;5001286;28;20627;-75
2024/01/25 11:13:40;;;;;;;10.30;4.20;;;;;;;13.03;56.11;99352.91;4997665;28;20997;-75
2024/01/25 11:16:20;;;;;;;11.40;3.90;;;;;;;13.29;55.38;99344.38;4999829;28;20687;-79
2024/01/25 11:18:51;;;;;;;12.17;4.30;;;;;;;13.04;55.80;99342.88;5001782;28;20681;-74
2024/01/25 11:21:27;;;;;;;9.43;3.10;;;;;;;13.17;55.48;99342.28;4999273;28;20626;-75
2024/01/25 11:24:03;;;;;;;13.20;4.47;;;;;;;13.15;55.12;99342.44;5002310;28;20717;-75
2024/01/25 11:26:30;;;;;;;9.27;3.53;;;;;;;12.62;55.50;99328.03;5000031;28;20622;-75
2024/01/25 11:28:59;;;;;;;13.87;3.80;;;;;;;12.14;57.95;99322.97;5000215;28;20693;-74
2024/01/25 11:31:28;;;;;;;13.50;4.37;;;;;;;12.86;56.46;99326.94;4998230;28;20681;-75
2024/01/25 11:33:58;;;;;;;11.13;4.53;;;;;;;12.72;56.44;99316.88;4998099;28;20622;-75